sensor_id;sensor_type;location;lat;lon;timestamp;P1;durP1;ratioP1;P2;durP2;ratioP2
27402;SDS011;14862;49.494;8.530;2022-07-01T00:01:40;1.85;;;0.80;;
27402;SDS011;14862;49.494;8.530;2022-07-01T00:04:05;2.40;;;0.90;;
27402;SDS011;14862;49.494;8.530;2022-07-01T00:06:31;2.58;;;1.30;;
27402;SDS011;14862;49.494;8.530;2022-07-01T00:08:56;4.90;;;1.17;;
27402;SDS011;14862;49.494;8.530;2022-07-01T00:11:21;1.70;;;0.60;;
27402;SDS011;14862;49.494;8.530;2022-07-01T00:13:46;3.63;;;0.90;;
27402;SDS011;14862;49.494;8.530;2022-07-01T00:16:12;4.28;;;1.30;;
27402;SDS011;14862;49.494;8.530;2022-07-01T00:18:38;4.47;;;1.20;;
27402;SDS011;14862;49.494;8.530;2022-07-01T00:21:04;1.58;;;1.05;;
27402;SDS011;14862;49.494;8.530;2022-07-01T00:23:29;2.15;;;1.00;;
27402;SDS011;14862;49.494;8.530;2022-07-01T00:25:55;4.72;;;1.30;;
27402;SDS011;14862;49.494;8.530;2022-07-01T00:28:21;1.85;;;1.17;;
27402;SDS011;14862;49.494;8.530;2022-07-01T00:30:46;3.35;;;1.25;;
27402;SDS011;14862;49.494;8.530;2022-07-01T00:33:11;2.75;;;0.82;;
27402;SDS011;14862;49.494;8.530;2022-07-01T00:35:36;1.13;;;0.70;;
27402;SDS011;14862;49.494;8.530;2022-07-01T00:38:02;2.00;;;0.93;;
27402;SDS011;14862;49.494;8.530;2022-07-01T00:40:27;3.60;;;1.20;;
27402;SDS011;14862;49.494;8.530;2022-07-01T00:42:52;1.17;;;0.82;;
27402;SDS011;14862;49.494;8.530;2022-07-01T00:45:18;0.77;;;0.77;;
27402;SDS011;14862;49.494;8.530;2022-07-01T00:47:43;0.70;;;0.70;;
27402;SDS011;14862;49.494;8.530;2022-07-01T00:50:12;2.60;;;0.82;;
27402;SDS011;14862;49.494;8.530;2022-07-01T00:52:39;1.92;;;0.90;;
27402;SDS011;14862;49.494;8.530;2022-07-01T00:55:06;0.90;;;0.73;;
27402;SDS011;14862;49.494;8.530;2022-07-01T00:57:33;2.75;;;1.52;;
27402;SDS011;14862;49.494;8.530;2022-07-01T00:59:58;1.80;;;1.20;;
27402;SDS011;14862;49.494;8.530;2022-07-01T01:02:24;4.05;;;1.42;;
27402;SDS011;14862;49.494;8.530;2022-07-01T01:04:49;2.90;;;1.48;;
27402;SDS011;14862;49.494;8.530;2022-07-01T01:07:14;3.35;;;1.50;;
27402;SDS011;14862;49.494;8.530;2022-07-01T01:09:40;1.83;;;1.23;;
27402;SDS011;14862;49.494;8.530;2022-07-01T01:12:05;3.80;;;1.45;;
27402;SDS011;14862;49.494;8.530;2022-07-01T01:14:42;3.17;;;1.48;;
27402;SDS011;14862;49.494;8.530;2022-07-01T01:17:08;1.42;;;0.90;;
27402;SDS011;14862;49.494;8.530;2022-07-01T01:19:33;3.40;;;0.93;;
27402;SDS011;14862;49.494;8.530;2022-07-01T01:21:59;2.53;;;1.00;;
27402;SDS011;14862;49.494;8.530;2022-07-01T01:24:24;2.42;;;0.80;;
27402;SDS011;14862;49.494;8.530;2022-07-01T01:26:49;1.23;;;1.00;;
27402;SDS011;14862;49.494;8.530;2022-07-01T01:29:14;2.07;;;0.93;;
27402;SDS011;14862;49.494;8.530;2022-07-01T01:31:39;1.27;;;0.93;;
27402;SDS011;14862;49.494;8.530;2022-07-01T01:34:05;1.20;;;1.02;;
27402;SDS011;14862;49.494;8.530;2022-07-01T01:36:30;2.08;;;0.93;;
27402;SDS011;14862;49.494;8.530;2022-07-01T01:38:55;1.35;;;0.98;;
27402;SDS011;14862;49.494;8.530;2022-07-01T01:41:36;2.85;;;1.33;;
27402;SDS011;14862;49.494;8.530;2022-07-01T01:44:01;3.90;;;0.90;;
27402;SDS011;14862;49.494;8.530;2022-07-01T01:46:26;1.55;;;0.85;;
27402;SDS011;14862;49.494;8.530;2022-07-01T01:48:54;2.75;;;0.75;;
27402;SDS011;14862;49.494;8.530;2022-07-01T01:51:19;3.00;;;1.00;;
27402;SDS011;14862;49.494;8.530;2022-07-01T01:53:44;1.85;;;1.00;;
27402;SDS011;14862;49.494;8.530;2022-07-01T01:56:09;1.10;;;1.00;;
27402;SDS011;14862;49.494;8.530;2022-07-01T01:58:35;2.20;;;1.23;;
27402;SDS011;14862;49.494;8.530;2022-07-01T02:01:00;1.30;;;1.07;;
27402;SDS011;14862;49.494;8.530;2022-07-01T02:03:26;4.05;;;1.35;;
27402;SDS011;14862;49.494;8.530;2022-07-01T02:05:52;1.45;;;1.25;;
27402;SDS011;14862;49.494;8.530;2022-07-01T02:08:17;3.90;;;1.33;;
27402;SDS011;14862;49.494;8.530;2022-07-01T02:10:42;4.60;;;1.27;;
27402;SDS011;14862;49.494;8.530;2022-07-01T02:13:07;2.80;;;1.33;;
27402;SDS011;14862;49.494;8.530;2022-07-01T02:15:33;2.88;;;1.13;;
27402;SDS011;14862;49.494;8.530;2022-07-01T02:17:58;2.70;;;1.77;;
27402;SDS011;14862;49.494;8.530;2022-07-01T02:20:23;5.10;;;1.48;;
27402;SDS011;14862;49.494;8.530;2022-07-01T02:22:48;1.75;;;1.20;;
27402;SDS011;14862;49.494;8.530;2022-07-01T02:25:14;2.67;;;1.13;;
27402;SDS011;14862;49.494;8.530;2022-07-01T02:27:39;2.28;;;1.27;;
27402;SDS011;14862;49.494;8.530;2022-07-01T02:30:05;1.40;;;1.20;;
27402;SDS011;14862;49.494;8.530;2022-07-01T02:32:30;14.85;;;1.42;;
27402;SDS011;14862;49.494;8.530;2022-07-01T02:34:56;1.20;;;0.98;;
27402;SDS011;14862;49.494;8.530;2022-07-01T02:37:21;2.07;;;1.00;;
27402;SDS011;14862;49.494;8.530;2022-07-01T02:39:46;2.87;;;0.97;;
27402;SDS011;14862;49.494;8.530;2022-07-01T02:42:11;2.60;;;1.10;;
27402;SDS011;14862;49.494;8.530;2022-07-01T02:44:50;1.77;;;1.00;;
27402;SDS011;14862;49.494;8.530;2022-07-01T02:47:15;1.75;;;0.95;;
27402;SDS011;14862;49.494;8.530;2022-07-01T02:49:41;4.10;;;0.93;;
27402;SDS011;14862;49.494;8.530;2022-07-01T02:52:06;1.55;;;1.00;;
27402;SDS011;14862;49.494;8.530;2022-07-01T02:54:31;2.40;;;0.90;;
27402;SDS011;14862;49.494;8.530;2022-07-01T02:56:56;1.13;;;0.83;;
27402;SDS011;14862;49.494;8.530;2022-07-01T02:59:21;1.00;;;0.73;;
27402;SDS011;14862;49.494;8.530;2022-07-01T03:01:47;3.97;;;1.10;;
27402;SDS011;14862;49.494;8.530;2022-07-01T03:04:12;3.67;;;1.10;;
27402;SDS011;14862;49.494;8.530;2022-07-01T03:06:37;4.38;;;0.93;;
27402;SDS011;14862;49.494;8.530;2022-07-01T03:09:03;3.47;;;1.52;;
27402;SDS011;14862;49.494;8.530;2022-07-01T03:11:28;2.25;;;1.02;;
27402;SDS011;14862;49.494;8.530;2022-07-01T03:13:53;1.35;;;1.00;;
27402;SDS011;14862;49.494;8.530;2022-07-01T03:16:18;1.48;;;1.20;;
27402;SDS011;14862;49.494;8.530;2022-07-01T03:18:44;1.07;;;1.00;;
27402;SDS011;14862;49.494;8.530;2022-07-01T03:21:09;4.18;;;1.10;;
27402;SDS011;14862;49.494;8.530;2022-07-01T03:23:34;1.37;;;0.83;;
27402;SDS011;14862;49.494;8.530;2022-07-01T03:25:59;1.20;;;1.10;;
27402;SDS011;14862;49.494;8.530;2022-07-01T03:28:25;1.20;;;0.85;;
27402;SDS011;14862;49.494;8.530;2022-07-01T03:30:50;2.22;;;1.30;;
27402;SDS011;14862;49.494;8.530;2022-07-01T03:33:15;1.25;;;0.80;;
27402;SDS011;14862;49.494;8.530;2022-07-01T03:35:40;1.05;;;0.88;;
27402;SDS011;14862;49.494;8.530;2022-07-01T03:38:10;1.75;;;1.10;;
27402;SDS011;14862;49.494;8.530;2022-07-01T03:40:35;2.22;;;1.40;;
27402;SDS011;14862;49.494;8.530;2022-07-01T03:43:01;3.90;;;1.42;;
27402;SDS011;14862;49.494;8.530;2022-07-01T03:45:26;1.98;;;1.35;;
27402;SDS011;14862;49.494;8.530;2022-07-01T03:47:52;1.50;;;1.02;;
27402;SDS011;14862;49.494;8.530;2022-07-01T03:50:18;1.23;;;1.02;;
27402;SDS011;14862;49.494;8.530;2022-07-01T03:52:45;1.92;;;1.00;;
27402;SDS011;14862;49.494;8.530;2022-07-01T03:55:10;1.75;;;1.27;;
27402;SDS011;14862;49.494;8.530;2022-07-01T03:57:36;1.85;;;1.00;;
27402;SDS011;14862;49.494;8.530;2022-07-01T04:00:01;1.40;;;1.17;;
27402;SDS011;14862;49.494;8.530;2022-07-01T04:02:26;3.25;;;1.55;;
27402;SDS011;14862;49.494;8.530;2022-07-01T04:04:51;2.40;;;1.23;;
27402;SDS011;14862;49.494;8.530;2022-07-01T04:07:17;4.50;;;1.63;;
27402;SDS011;14862;49.494;8.530;2022-07-01T04:09:42;3.30;;;1.40;;
27402;SDS011;14862;49.494;8.530;2022-07-01T04:12:08;1.50;;;1.15;;
27402;SDS011;14862;49.494;8.530;2022-07-01T04:14:34;1.33;;;1.17;;
27402;SDS011;14862;49.494;8.530;2022-07-01T04:16:59;2.97;;;1.23;;
27402;SDS011;14862;49.494;8.530;2022-07-01T04:19:25;1.52;;;1.20;;
27402;SDS011;14862;49.494;8.530;2022-07-01T04:21:50;2.80;;;1.08;;
27402;SDS011;14862;49.494;8.530;2022-07-01T04:24:34;2.53;;;2.15;;
27402;SDS011;14862;49.494;8.530;2022-07-01T04:27:00;2.88;;;1.05;;
27402;SDS011;14862;49.494;8.530;2022-07-01T04:29:25;1.83;;;1.15;;
27402;SDS011;14862;49.494;8.530;2022-07-01T04:31:52;3.22;;;1.52;;
27402;SDS011;14862;49.494;8.530;2022-07-01T04:34:17;2.92;;;1.70;;
27402;SDS011;14862;49.494;8.530;2022-07-01T04:36:43;2.60;;;1.20;;
27402;SDS011;14862;49.494;8.530;2022-07-01T04:39:08;2.08;;;1.10;;
27402;SDS011;14862;49.494;8.530;2022-07-01T04:41:34;2.50;;;0.95;;
27402;SDS011;14862;49.494;8.530;2022-07-01T04:44:18;3.83;;;1.45;;
27402;SDS011;14862;49.494;8.530;2022-07-01T04:46:43;1.35;;;1.13;;
27402;SDS011;14862;49.494;8.530;2022-07-01T04:49:09;1.40;;;1.30;;
27402;SDS011;14862;49.494;8.530;2022-07-01T04:51:34;3.42;;;1.48;;
27402;SDS011;14862;49.494;8.530;2022-07-01T04:54:03;3.95;;;1.70;;
27402;SDS011;14862;49.494;8.530;2022-07-01T04:56:29;4.93;;;1.10;;
27402;SDS011;14862;49.494;8.530;2022-07-01T04:58:55;1.02;;;0.95;;
27402;SDS011;14862;49.494;8.530;2022-07-01T05:01:20;2.17;;;1.30;;
27402;SDS011;14862;49.494;8.530;2022-07-01T05:03:45;3.35;;;1.40;;
27402;SDS011;14862;49.494;8.530;2022-07-01T05:06:11;2.20;;;1.20;;
27402;SDS011;14862;49.494;8.530;2022-07-01T05:08:36;3.08;;;1.30;;
27402;SDS011;14862;49.494;8.530;2022-07-01T05:11:01;4.70;;;1.23;;
27402;SDS011;14862;49.494;8.530;2022-07-01T05:13:26;1.83;;;1.35;;
27402;SDS011;14862;49.494;8.530;2022-07-01T05:15:51;3.92;;;1.30;;
27402;SDS011;14862;49.494;8.530;2022-07-01T05:18:17;2.03;;;1.10;;
27402;SDS011;14862;49.494;8.530;2022-07-01T05:21:00;3.53;;;1.27;;
27402;SDS011;14862;49.494;8.530;2022-07-01T05:23:44;1.75;;;1.35;;
27402;SDS011;14862;49.494;8.530;2022-07-01T05:26:10;4.18;;;1.60;;
27402;SDS011;14862;49.494;8.530;2022-07-01T05:28:40;2.67;;;1.30;;
27402;SDS011;14862;49.494;8.530;2022-07-01T05:31:06;5.70;;;1.70;;
27402;SDS011;14862;49.494;8.530;2022-07-01T05:33:31;2.85;;;1.67;;
27402;SDS011;14862;49.494;8.530;2022-07-01T05:35:56;2.33;;;2.13;;
27402;SDS011;14862;49.494;8.530;2022-07-01T05:38:21;2.00;;;1.23;;
27402;SDS011;14862;49.494;8.530;2022-07-01T05:40:47;1.70;;;1.50;;
27402;SDS011;14862;49.494;8.530;2022-07-01T05:43:12;1.80;;;1.30;;
27402;SDS011;14862;49.494;8.530;2022-07-01T05:45:37;2.50;;;1.67;;
27402;SDS011;14862;49.494;8.530;2022-07-01T05:48:03;2.05;;;1.40;;
27402;SDS011;14862;49.494;8.530;2022-07-01T05:50:28;2.03;;;1.83;;
27402;SDS011;14862;49.494;8.530;2022-07-01T05:52:53;2.92;;;1.95;;
27402;SDS011;14862;49.494;8.530;2022-07-01T05:55:18;2.60;;;1.63;;
27402;SDS011;14862;49.494;8.530;2022-07-01T05:57:44;2.37;;;1.53;;
27402;SDS011;14862;49.494;8.530;2022-07-01T06:00:09;1.50;;;1.40;;
27402;SDS011;14862;49.494;8.530;2022-07-01T06:02:35;3.47;;;1.98;;
27402;SDS011;14862;49.494;8.530;2022-07-01T06:05:00;1.85;;;1.75;;
27402;SDS011;14862;49.494;8.530;2022-07-01T06:07:27;1.95;;;1.60;;
27402;SDS011;14862;49.494;8.530;2022-07-01T06:09:52;2.67;;;2.47;;
27402;SDS011;14862;49.494;8.530;2022-07-01T06:12:18;3.20;;;2.33;;
27402;SDS011;14862;49.494;8.530;2022-07-01T06:14:43;5.05;;;2.35;;
27402;SDS011;14862;49.494;8.530;2022-07-01T06:17:09;7.63;;;2.40;;
27402;SDS011;14862;49.494;8.530;2022-07-01T06:19:35;4.22;;;2.83;;
27402;SDS011;14862;49.494;8.530;2022-07-01T06:22:00;3.00;;;2.03;;
27402;SDS011;14862;49.494;8.530;2022-07-01T06:24:25;4.13;;;2.00;;
27402;SDS011;14862;49.494;8.530;2022-07-01T06:26:50;5.65;;;2.40;;
27402;SDS011;14862;49.494;8.530;2022-07-01T06:29:16;4.47;;;2.35;;
27402;SDS011;14862;49.494;8.530;2022-07-01T06:31:41;5.70;;;2.10;;
27402;SDS011;14862;49.494;8.530;2022-07-01T06:34:06;2.47;;;1.98;;
27402;SDS011;14862;49.494;8.530;2022-07-01T06:36:31;4.43;;;2.00;;
27402;SDS011;14862;49.494;8.530;2022-07-01T06:38:57;3.03;;;2.63;;
27402;SDS011;14862;49.494;8.530;2022-07-01T06:41:22;4.57;;;2.70;;
27402;SDS011;14862;49.494;8.530;2022-07-01T06:43:56;3.70;;;2.72;;
27402;SDS011;14862;49.494;8.530;2022-07-01T06:46:22;4.82;;;2.90;;
27402;SDS011;14862;49.494;8.530;2022-07-01T06:48:47;4.95;;;2.70;;
27402;SDS011;14862;49.494;8.530;2022-07-01T06:51:13;6.75;;;2.97;;
27402;SDS011;14862;49.494;8.530;2022-07-01T06:53:39;3.65;;;2.33;;
27402;SDS011;14862;49.494;8.530;2022-07-01T06:56:04;3.47;;;2.40;;
27402;SDS011;14862;49.494;8.530;2022-07-01T06:58:30;3.15;;;2.17;;
27402;SDS011;14862;49.494;8.530;2022-07-01T07:00:56;3.70;;;2.00;;
27402;SDS011;14862;49.494;8.530;2022-07-01T07:03:21;3.40;;;2.80;;
27402;SDS011;14862;49.494;8.530;2022-07-01T07:05:46;2.50;;;1.88;;
27402;SDS011;14862;49.494;8.530;2022-07-01T07:08:11;2.45;;;1.70;;
27402;SDS011;14862;49.494;8.530;2022-07-01T07:10:37;5.75;;;2.20;;
27402;SDS011;14862;49.494;8.530;2022-07-01T07:13:02;4.38;;;1.70;;
27402;SDS011;14862;49.494;8.530;2022-07-01T07:15:27;2.08;;;1.92;;
27402;SDS011;14862;49.494;8.530;2022-07-01T07:17:52;4.78;;;2.20;;
27402;SDS011;14862;49.494;8.530;2022-07-01T07:20:19;2.67;;;1.73;;
27402;SDS011;14862;49.494;8.530;2022-07-01T07:22:44;2.20;;;1.95;;
27402;SDS011;14862;49.494;8.530;2022-07-01T07:25:10;6.00;;;2.22;;
27402;SDS011;14862;49.494;8.530;2022-07-01T07:27:35;4.80;;;2.72;;
27402;SDS011;14862;49.494;8.530;2022-07-01T07:30:00;3.80;;;2.08;;
27402;SDS011;14862;49.494;8.530;2022-07-01T07:32:28;6.22;;;2.15;;
27402;SDS011;14862;49.494;8.530;2022-07-01T07:34:53;3.92;;;2.22;;
27402;SDS011;14862;49.494;8.530;2022-07-01T07:37:18;3.10;;;2.25;;
27402;SDS011;14862;49.494;8.530;2022-07-01T07:39:44;3.45;;;2.15;;
27402;SDS011;14862;49.494;8.530;2022-07-01T07:42:09;2.33;;;2.13;;
27402;SDS011;14862;49.494;8.530;2022-07-01T07:44:34;3.78;;;2.47;;
27402;SDS011;14862;49.494;8.530;2022-07-01T07:47:00;5.75;;;2.53;;
27402;SDS011;14862;49.494;8.530;2022-07-01T07:49:25;3.63;;;2.35;;
27402;SDS011;14862;49.494;8.530;2022-07-01T07:51:51;2.83;;;2.58;;
27402;SDS011;14862;49.494;8.530;2022-07-01T07:54:16;4.97;;;2.90;;
27402;SDS011;14862;49.494;8.530;2022-07-01T07:56:41;4.47;;;2.75;;
27402;SDS011;14862;49.494;8.530;2022-07-01T07:59:07;4.68;;;2.72;;
27402;SDS011;14862;49.494;8.530;2022-07-01T08:01:32;3.60;;;3.13;;
27402;SDS011;14862;49.494;8.530;2022-07-01T08:03:57;5.82;;;3.65;;
27402;SDS011;14862;49.494;8.530;2022-07-01T08:06:22;5.70;;;3.40;;
27402;SDS011;14862;49.494;8.530;2022-07-01T08:08:48;5.72;;;3.45;;
27402;SDS011;14862;49.494;8.530;2022-07-01T08:11:13;3.38;;;3.08;;
27402;SDS011;14862;49.494;8.530;2022-07-01T08:13:38;4.45;;;3.45;;
27402;SDS011;14862;49.494;8.530;2022-07-01T08:16:04;5.85;;;3.33;;
27402;SDS011;14862;49.494;8.530;2022-07-01T08:18:29;5.38;;;3.58;;
27402;SDS011;14862;49.494;8.530;2022-07-01T08:20:55;5.07;;;3.53;;
27402;SDS011;14862;49.494;8.530;2022-07-01T08:23:20;3.58;;;3.20;;
27402;SDS011;14862;49.494;8.530;2022-07-01T08:25:46;4.43;;;4.03;;
27402;SDS011;14862;49.494;8.530;2022-07-01T08:28:12;4.75;;;3.42;;
27402;SDS011;14862;49.494;8.530;2022-07-01T08:30:37;3.90;;;3.42;;
27402;SDS011;14862;49.494;8.530;2022-07-01T08:33:03;3.85;;;3.45;;
27402;SDS011;14862;49.494;8.530;2022-07-01T08:35:29;3.92;;;3.40;;
27402;SDS011;14862;49.494;8.530;2022-07-01T08:37:54;4.00;;;3.60;;
27402;SDS011;14862;49.494;8.530;2022-07-01T08:40:23;5.30;;;3.83;;
27402;SDS011;14862;49.494;8.530;2022-07-01T08:42:49;7.10;;;4.20;;
27402;SDS011;14862;49.494;8.530;2022-07-01T08:45:14;5.57;;;3.50;;
27402;SDS011;14862;49.494;8.530;2022-07-01T08:47:51;9.00;;;4.30;;
27402;SDS011;14862;49.494;8.530;2022-07-01T08:50:17;5.38;;;3.72;;
27402;SDS011;14862;49.494;8.530;2022-07-01T08:52:42;6.40;;;3.80;;
27402;SDS011;14862;49.494;8.530;2022-07-01T08:55:08;5.07;;;3.47;;
27402;SDS011;14862;49.494;8.530;2022-07-01T08:57:33;10.57;;;3.97;;
27402;SDS011;14862;49.494;8.530;2022-07-01T09:00:05;4.95;;;4.15;;
27402;SDS011;14862;49.494;8.530;2022-07-01T09:02:48;6.20;;;4.65;;
27402;SDS011;14862;49.494;8.530;2022-07-01T09:05:13;6.63;;;3.65;;
27402;SDS011;14862;49.494;8.530;2022-07-01T09:07:39;7.20;;;3.50;;
27402;SDS011;14862;49.494;8.530;2022-07-01T09:10:13;4.07;;;3.67;;
27402;SDS011;14862;49.494;8.530;2022-07-01T09:12:42;5.78;;;3.33;;
27402;SDS011;14862;49.494;8.530;2022-07-01T09:17:52;3.28;;;2.22;;
27402;SDS011;14862;49.494;8.530;2022-07-01T09:20:24;4.20;;;2.30;;
27402;SDS011;14862;49.494;8.530;2022-07-01T09:23:04;4.00;;;2.53;;
27402;SDS011;14862;49.494;8.530;2022-07-01T09:25:33;3.63;;;2.58;;
27402;SDS011;14862;49.494;8.530;2022-07-01T09:30:57;1.60;;;1.20;;
27402;SDS011;14862;49.494;8.530;2022-07-01T09:33:24;3.50;;;1.48;;
27402;SDS011;14862;49.494;8.530;2022-07-01T09:35:49;1.30;;;1.20;;
27402;SDS011;14862;49.494;8.530;2022-07-01T09:38:15;2.35;;;1.23;;
27402;SDS011;14862;49.494;8.530;2022-07-01T09:40:57;3.55;;;1.02;;
27402;SDS011;14862;49.494;8.530;2022-07-01T09:43:26;3.78;;;1.05;;
27402;SDS011;14862;49.494;8.530;2022-07-01T09:45:59;3.45;;;1.27;;
27402;SDS011;14862;49.494;8.530;2022-07-01T09:48:41;3.47;;;1.30;;
27402;SDS011;14862;49.494;8.530;2022-07-01T09:51:07;1.25;;;1.10;;
27402;SDS011;14862;49.494;8.530;2022-07-01T09:53:33;1.80;;;1.05;;
27402;SDS011;14862;49.494;8.530;2022-07-01T09:55:58;3.60;;;1.10;;
27402;SDS011;14862;49.494;8.530;2022-07-01T09:58:24;2.75;;;1.10;;
27402;SDS011;14862;49.494;8.530;2022-07-01T10:00:49;2.45;;;1.23;;
27402;SDS011;14862;49.494;8.530;2022-07-01T10:03:17;2.22;;;1.15;;
27402;SDS011;14862;49.494;8.530;2022-07-01T10:05:50;2.65;;;1.25;;
27402;SDS011;14862;49.494;8.530;2022-07-01T10:13:31;5.93;;;1.73;;
27402;SDS011;14862;49.494;8.530;2022-07-01T10:15:58;4.30;;;1.40;;
27402;SDS011;14862;49.494;8.530;2022-07-01T10:18:24;1.63;;;1.52;;
27402;SDS011;14862;49.494;8.530;2022-07-01T10:20:51;4.65;;;1.63;;
27402;SDS011;14862;49.494;8.530;2022-07-01T10:23:16;5.50;;;1.50;;
27402;SDS011;14862;49.494;8.530;2022-07-01T10:25:45;4.63;;;1.58;;
27402;SDS011;14862;49.494;8.530;2022-07-01T10:31:12;3.40;;;1.40;;
27402;SDS011;14862;49.494;8.530;2022-07-01T10:33:57;2.20;;;1.48;;
27402;SDS011;14862;49.494;8.530;2022-07-01T10:41:28;1.58;;;0.80;;
27402;SDS011;14862;49.494;8.530;2022-07-01T10:43:53;3.28;;;1.63;;
27402;SDS011;14862;49.494;8.530;2022-07-01T10:49:07;3.58;;;1.40;;
27402;SDS011;14862;49.494;8.530;2022-07-01T10:51:50;2.92;;;1.17;;
27402;SDS011;14862;49.494;8.530;2022-07-01T11:02:21;2.75;;;1.70;;
27402;SDS011;14862;49.494;8.530;2022-07-01T11:04:47;3.00;;;1.10;;
27402;SDS011;14862;49.494;8.530;2022-07-01T11:07:13;3.38;;;1.10;;
27402;SDS011;14862;49.494;8.530;2022-07-01T11:09:38;1.77;;;1.58;;
27402;SDS011;14862;49.494;8.530;2022-07-01T11:12:04;1.60;;;1.47;;
27402;SDS011;14862;49.494;8.530;2022-07-01T11:14:31;3.85;;;1.17;;
27402;SDS011;14862;49.494;8.530;2022-07-01T11:16:58;5.53;;;1.40;;
27402;SDS011;14862;49.494;8.530;2022-07-01T11:19:24;2.38;;;1.40;;
27402;SDS011;14862;49.494;8.530;2022-07-01T11:21:49;2.13;;;1.40;;
27402;SDS011;14862;49.494;8.530;2022-07-01T11:24:16;2.80;;;1.50;;
27402;SDS011;14862;49.494;8.530;2022-07-01T11:26:41;4.90;;;1.40;;
27402;SDS011;14862;49.494;8.530;2022-07-01T11:29:09;3.03;;;1.40;;
27402;SDS011;14862;49.494;8.530;2022-07-01T11:31:34;3.88;;;1.73;;
27402;SDS011;14862;49.494;8.530;2022-07-01T11:33:59;3.72;;;1.25;;
27402;SDS011;14862;49.494;8.530;2022-07-01T11:36:24;2.90;;;1.58;;
27402;SDS011;14862;49.494;8.530;2022-07-01T11:39:09;4.85;;;1.50;;
27402;SDS011;14862;49.494;8.530;2022-07-01T11:41:53;3.50;;;1.90;;
27402;SDS011;14862;49.494;8.530;2022-07-01T11:46:53;4.55;;;1.40;;
27402;SDS011;14862;49.494;8.530;2022-07-01T11:49:19;2.03;;;1.55;;
27402;SDS011;14862;49.494;8.530;2022-07-01T11:52:09;1.50;;;1.10;;
27402;SDS011;14862;49.494;8.530;2022-07-01T11:54:38;3.90;;;1.38;;
27402;SDS011;14862;49.494;8.530;2022-07-01T11:57:07;2.92;;;1.13;;
27402;SDS011;14862;49.494;8.530;2022-07-01T11:59:33;2.55;;;1.75;;
27402;SDS011;14862;49.494;8.530;2022-07-01T12:01:58;1.80;;;1.15;;
27402;SDS011;14862;49.494;8.530;2022-07-01T12:04:25;4.63;;;1.15;;
27402;SDS011;14862;49.494;8.530;2022-07-01T12:06:50;2.10;;;1.50;;
27402;SDS011;14862;49.494;8.530;2022-07-01T12:09:16;4.15;;;1.55;;
27402;SDS011;14862;49.494;8.530;2022-07-01T12:11:46;5.15;;;2.08;;
27402;SDS011;14862;49.494;8.530;2022-07-01T12:14:11;2.88;;;1.30;;
27402;SDS011;14862;49.494;8.530;2022-07-01T12:16:43;2.45;;;1.42;;
27402;SDS011;14862;49.494;8.530;2022-07-01T12:19:08;1.53;;;1.33;;
27402;SDS011;14862;49.494;8.530;2022-07-01T12:21:46;2.97;;;1.52;;
27402;SDS011;14862;49.494;8.530;2022-07-01T12:24:12;4.75;;;1.40;;
27402;SDS011;14862;49.494;8.530;2022-07-01T12:26:48;1.95;;;1.13;;
27402;SDS011;14862;49.494;8.530;2022-07-01T12:29:14;1.33;;;1.20;;
27402;SDS011;14862;49.494;8.530;2022-07-01T12:31:43;3.15;;;1.45;;
27402;SDS011;14862;49.494;8.530;2022-07-01T12:34:08;4.75;;;1.63;;
27402;SDS011;14862;49.494;8.530;2022-07-01T12:36:33;3.55;;;1.70;;
27402;SDS011;14862;49.494;8.530;2022-07-01T12:39:06;2.85;;;1.67;;
27402;SDS011;14862;49.494;8.530;2022-07-01T12:41:32;2.17;;;1.45;;
27402;SDS011;14862;49.494;8.530;2022-07-01T12:44:21;5.50;;;1.52;;
27402;SDS011;14862;49.494;8.530;2022-07-01T12:46:45;4.32;;;1.63;;
27402;SDS011;14862;49.494;8.530;2022-07-01T12:49:17;1.98;;;1.50;;
27402;SDS011;14862;49.494;8.530;2022-07-01T12:51:43;2.40;;;1.40;;
27402;SDS011;14862;49.494;8.530;2022-07-01T12:54:08;2.65;;;1.42;;
27402;SDS011;14862;49.494;8.530;2022-07-01T12:56:52;2.30;;;1.52;;
27402;SDS011;14862;49.494;8.530;2022-07-01T12:59:17;4.38;;;1.70;;
27402;SDS011;14862;49.494;8.530;2022-07-01T13:01:43;2.70;;;1.67;;
27402;SDS011;14862;49.494;8.530;2022-07-01T13:04:08;5.05;;;1.58;;
27402;SDS011;14862;49.494;8.530;2022-07-01T13:06:33;2.80;;;1.73;;
27402;SDS011;14862;49.494;8.530;2022-07-01T13:08:58;3.88;;;1.88;;
27402;SDS011;14862;49.494;8.530;2022-07-01T13:11:23;2.92;;;1.60;;
27402;SDS011;14862;49.494;8.530;2022-07-01T13:13:49;2.13;;;1.65;;
27402;SDS011;14862;49.494;8.530;2022-07-01T13:16:14;3.08;;;1.70;;
27402;SDS011;14862;49.494;8.530;2022-07-01T13:18:39;4.47;;;1.45;;
27402;SDS011;14862;49.494;8.530;2022-07-01T13:21:05;1.95;;;1.48;;
27402;SDS011;14862;49.494;8.530;2022-07-01T13:23:30;2.67;;;1.55;;
27402;SDS011;14862;49.494;8.530;2022-07-01T13:25:55;2.38;;;1.60;;
27402;SDS011;14862;49.494;8.530;2022-07-01T13:28:20;1.73;;;1.40;;
27402;SDS011;14862;49.494;8.530;2022-07-01T13:30:46;2.42;;;1.40;;
27402;SDS011;14862;49.494;8.530;2022-07-01T13:33:11;3.28;;;1.60;;
27402;SDS011;14862;49.494;8.530;2022-07-01T13:35:37;2.42;;;1.55;;
27402;SDS011;14862;49.494;8.530;2022-07-01T13:38:02;2.80;;;1.58;;
27402;SDS011;14862;49.494;8.530;2022-07-01T13:40:27;2.42;;;1.35;;
27402;SDS011;14862;49.494;8.530;2022-07-01T13:42:53;3.50;;;1.80;;
27402;SDS011;14862;49.494;8.530;2022-07-01T13:45:18;3.20;;;1.65;;
27402;SDS011;14862;49.494;8.530;2022-07-01T13:47:43;2.58;;;1.35;;
27402;SDS011;14862;49.494;8.530;2022-07-01T13:50:09;1.98;;;1.25;;
27402;SDS011;14862;49.494;8.530;2022-07-01T13:52:35;1.85;;;1.50;;
27402;SDS011;14862;49.494;8.530;2022-07-01T13:55:00;3.72;;;1.15;;
27402;SDS011;14862;49.494;8.530;2022-07-01T13:57:26;2.25;;;1.45;;
27402;SDS011;14862;49.494;8.530;2022-07-01T13:59:51;2.65;;;1.30;;
27402;SDS011;14862;49.494;8.530;2022-07-01T14:02:17;4.40;;;1.40;;
27402;SDS011;14862;49.494;8.530;2022-07-01T14:04:44;2.85;;;1.10;;
27402;SDS011;14862;49.494;8.530;2022-07-01T14:07:09;1.60;;;1.10;;
27402;SDS011;14862;49.494;8.530;2022-07-01T14:09:34;2.88;;;1.20;;
27402;SDS011;14862;49.494;8.530;2022-07-01T14:12:01;0.80;;;0.80;;
27402;SDS011;14862;49.494;8.530;2022-07-01T14:14:26;2.33;;;0.95;;
27402;SDS011;14862;49.494;8.530;2022-07-01T14:16:51;1.35;;;1.17;;
27402;SDS011;14862;49.494;8.530;2022-07-01T14:19:17;3.58;;;1.20;;
27402;SDS011;14862;49.494;8.530;2022-07-01T14:21:42;1.05;;;0.98;;
27402;SDS011;14862;49.494;8.530;2022-07-01T14:24:07;3.33;;;1.33;;
27402;SDS011;14862;49.494;8.530;2022-07-01T14:26:33;2.55;;;0.88;;
27402;SDS011;14862;49.494;8.530;2022-07-01T14:28:58;1.63;;;1.15;;
27402;SDS011;14862;49.494;8.530;2022-07-01T14:31:23;2.25;;;1.02;;
27402;SDS011;14862;49.494;8.530;2022-07-01T14:33:48;2.57;;;0.80;;
27402;SDS011;14862;49.494;8.530;2022-07-01T14:36:14;2.28;;;1.02;;
27402;SDS011;14862;49.494;8.530;2022-07-01T14:38:39;1.70;;;1.10;;
27402;SDS011;14862;49.494;8.530;2022-07-01T14:41:05;5.07;;;1.10;;
27402;SDS011;14862;49.494;8.530;2022-07-01T14:43:30;2.05;;;1.27;;
27402;SDS011;14862;49.494;8.530;2022-07-01T14:45:56;2.88;;;0.90;;
27402;SDS011;14862;49.494;8.530;2022-07-01T14:48:21;4.22;;;0.93;;
27402;SDS011;14862;49.494;8.530;2022-07-01T14:50:47;2.38;;;0.90;;
27402;SDS011;14862;49.494;8.530;2022-07-01T14:53:12;4.20;;;0.80;;
27402;SDS011;14862;49.494;8.530;2022-07-01T14:55:37;0.77;;;0.70;;
27402;SDS011;14862;49.494;8.530;2022-07-01T14:58:02;2.15;;;1.10;;
27402;SDS011;14862;49.494;8.530;2022-07-01T15:00:28;1.88;;;0.93;;
27402;SDS011;14862;49.494;8.530;2022-07-01T15:02:54;3.10;;;0.90;;
27402;SDS011;14862;49.494;8.530;2022-07-01T15:05:20;1.55;;;0.77;;
27402;SDS011;14862;49.494;8.530;2022-07-01T15:07:46;6.80;;;0.88;;
27402;SDS011;14862;49.494;8.530;2022-07-01T15:10:11;1.73;;;0.53;;
27402;SDS011;14862;49.494;8.530;2022-07-01T15:12:36;2.13;;;0.90;;
27402;SDS011;14862;49.494;8.530;2022-07-01T15:15:02;3.55;;;0.90;;
27402;SDS011;14862;49.494;8.530;2022-07-01T15:17:27;2.13;;;0.88;;